Time;durP1;ratioP1;P1;durP2;ratioP2;P2;SDS_P1;SDS_P2;PMS_P1;PMS_P2;Temp;Humidity;BMP_temperature;BMP_pressure;BME280_temperature;BME280_humidity;BME280_pressure;Samples;Min_cycle;Max_cycle;Signal;HPM_P1;HPM_P2
2021/06/21 00:00:11;;;;;;;3.70;1.45;;;;;;;17.38;84.07;95689.34;5093211;28;20048;-73
2021/06/21 00:02:38;;;;;;;4.93;1.95;;;;;;;17.39;83.53;95695.44;5093206;28;20040;-73
2021/06/21 00:05:05;;;;;;;4.50;1.60;;;;;;;17.40;83.71;95694.38;5093249;28;20399;-73
2021/06/21 00:07:32;;;;;;;4.38;1.60;;;;;;;17.41;83.65;95688.78;5092491;28;20480;-73
2021/06/21 00:09:58;;;;;;;3.83;1.60;;;;;;;17.42;83.98;95697.53;5093275;28;20043;-73
2021/06/21 00:12:24;;;;;;;4.03;1.48;;;;;;;17.39;83.81;95696.22;5092465;28;20041;-73
2021/06/21 00:14:50;;;;;;;4.82;1.50;;;;;;;17.36;83.71;95702.06;5092997;28;20051;-73
2021/06/21 00:17:17;;;;;;;3.90;1.90;;;;;;;17.34;83.89;95703.44;5092977;28;20040;-73
2021/06/21 00:19:44;;;;;;;3.35;1.60;;;;;;;17.30;84.06;95705.84;5093021;28;20040;-73
2021/06/21 00:22:11;;;;;;;3.60;1.52;;;;;;;17.29;84.30;95711.44;5092665;28;20044;-73
2021/06/21 00:24:37;;;;;;;4.80;1.73;;;;;;;17.26;84.26;95720.75;5092788;28;20043;-73
2021/06/21 00:27:09;;;;;;;2.83;1.50;;;;;;;17.18;84.52;95711.53;5093259;28;20063;-73
2021/06/21 00:29:35;;;;;;;2.83;1.73;;;;;;;17.12;84.66;95706.53;5092573;28;20024;-74
2021/06/21 00:32:01;;;;;;;3.28;1.70;;;;;;;17.14;85.15;95712.34;5058012;28;20036;-73
2021/06/21 00:34:28;;;;;;;6.25;2.38;;;;;;;17.16;85.17;95718.16;5092496;28;20494;-73
2021/06/21 00:36:54;;;;;;;4.22;1.83;;;;;;;17.17;85.49;95715.22;5092331;28;20048;-73
2021/06/21 00:39:21;;;;;;;3.65;1.92;;;;;;;17.17;85.52;95714.44;5092868;28;20043;-73
2021/06/21 00:41:47;;;;;;;3.30;1.70;;;;;;;17.13;85.32;95716.84;5096283;28;20036;-73
2021/06/21 00:44:13;;;;;;;4.57;1.70;;;;;;;17.09;85.55;95742.31;5096401;28;20044;-73
2021/06/21 00:46:39;;;;;;;2.17;1.45;;;;;;;17.10;86.15;95727.22;5096641;28;20561;-73
2021/06/21 00:49:06;;;;;;;2.92;1.58;;;;;;;17.13;86.15;95730.09;5096889;28;20476;-72
2021/06/21 00:51:33;;;;;;;4.53;1.90;;;;;;;17.09;86.28;95737.00;5095679;28;20051;-72
2021/06/21 00:54:00;;;;;;;3.72;1.42;;;;;;;17.08;86.43;95724.06;5095805;28;20416;-73
2021/06/21 00:56:27;;;;;;;5.82;1.92;;;;;;;17.03;86.50;95714.28;5096134;28;20055;-73
2021/06/21 00:58:58;;;;;;;6.53;1.80;;;;;;;17.00;86.88;95706.88;5094841;28;20397;-73
2021/06/21 01:01:24;;;;;;;3.42;1.60;;;;;;;17.02;87.20;95710.06;5084090;28;20035;-73
2021/06/21 01:03:51;;;;;;;3.35;1.92;;;;;;;17.00;87.02;95710.31;5096268;28;20031;-73
2021/06/21 01:06:17;;;;;;;4.82;2.58;;;;;;;17.00;87.26;95712.97;5095563;28;20086;-73
2021/06/21 01:08:43;;;;;;;6.35;2.10;;;;;;;16.98;87.25;95703.72;5095975;28;20036;-72
2021/06/21 01:11:10;;;;;;;5.07;1.90;;;;;;;16.96;87.36;95711.94;5096008;28;20055;-73
2021/06/21 01:13:59;;;;;;;4.45;2.00;;;;;;;16.93;87.61;95714.38;5095763;28;20044;-73
2021/06/21 01:16:30;;;;;;;4.68;1.80;;;;;;;16.93;87.63;95709.06;5095878;28;20399;-73
2021/06/21 01:19:12;;;;;;;2.22;1.67;;;;;;;16.95;87.83;95712.25;5095900;28;20040;-73
2021/06/21 01:21:53;;;;;;;3.53;1.88;;;;;;;16.95;88.70;95715.66;5096048;28;20047;-73
2021/06/21 01:24:25;;;;;;;2.05;1.60;;;;;;;16.98;88.23;95719.63;5095541;28;20036;-74
2021/06/21 01:27:07;;;;;;;4.97;1.55;;;;;;;17.01;88.41;95706.63;5095532;28;20035;-72
2021/06/21 01:29:45;;;;;;;4.90;1.70;;;;;;;17.01;88.43;95698.66;5095389;28;20036;-73
2021/06/21 01:32:16;;;;;;;4.03;2.10;;;;;;;17.03;88.39;95685.94;5096015;28;20044;-73
2021/06/21 01:34:46;;;;;;;3.58;1.75;;;;;;;17.06;88.31;95687.25;5095427;28;20032;-73
2021/06/21 01:37:14;;;;;;;3.47;1.42;;;;;;;17.06;88.16;95707.66;5095325;28;20103;-72
2021/06/21 01:39:43;;;;;;;4.13;1.80;;;;;;;17.06;88.26;95700.47;5095494;28;20048;-72
2021/06/21 01:42:12;;;;;;;2.78;1.48;;;;;;;17.09;88.16;95710.50;5095143;28;20028;-73
2021/06/21 01:44:42;;;;;;;3.38;1.55;;;;;;;17.09;88.27;95709.72;5095025;28;20035;-73
2021/06/21 01:47:13;;;;;;;3.75;1.85;;;;;;;17.07;88.13;95725.09;5095293;28;20050;-72
2021/06/21 01:49:44;;;;;;;4.30;1.70;;;;;;;17.04;88.07;95737.06;5095216;28;20032;-72
2021/06/21 01:52:12;;;;;;;2.53;1.67;;;;;;;16.97;88.00;95734.72;5093712;28;20044;-72
2021/06/21 01:54:53;;;;;;;2.83;1.70;;;;;;;16.92;88.25;95728.66;5093564;28;20055;-73
2021/06/21 01:57:22;;;;;;;6.55;2.17;;;;;;;16.84;88.13;95720.25;5095628;28;20071;-72
2021/06/21 01:59:50;;;;;;;3.50;1.80;;;;;;;16.80;88.46;95729.81;5094910;28;20024;-73
2021/06/21 02:02:21;;;;;;;3.45;1.60;;;;;;;16.79;88.73;95725.53;5095115;28;20028;-73
2021/06/21 02:04:49;;;;;;;4.13;1.67;;;;;;;16.79;89.01;95732.69;5094653;28;20024;-72
2021/06/21 02:07:17;;;;;;;3.42;2.15;;;;;;;16.74;88.86;95730.88;5094713;28;20040;-72
2021/06/21 02:09:46;;;;;;;3.15;1.75;;;;;;;16.72;89.19;95719.75;5094607;28;20281;-73
2021/06/21 02:12:24;;;;;;;4.63;2.13;;;;;;;16.73;89.89;95723.19;5094569;28;20039;-73
2021/06/21 02:14:51;;;;;;;6.70;2.05;;;;;;;16.70;89.40;95729.84;5080743;28;20040;-73
2021/06/21 02:17:23;;;;;;;4.05;2.10;;;;;;;16.68;89.74;95723.25;5094449;28;20044;-73
2021/06/21 02:19:51;;;;;;;5.30;2.72;;;;;;;16.69;89.86;95716.88;5093806;28;20106;-73
2021/06/21 02:22:22;;;;;;;4.00;2.45;;;;;;;16.70;90.19;95724.53;5094560;28;20039;-73
2021/06/21 02:24:49;;;;;;;3.17;2.00;;;;;;;16.68;90.06;95713.44;5094365;28;20043;-72
2021/06/21 02:27:18;;;;;;;4.45;2.10;;;;;;;16.70;90.18;95715.81;5093919;28;20415;-73
2021/06/21 02:29:45;;;;;;;5.18;2.03;;;;;;;16.70;90.03;95710.53;5094712;28;20032;-74
2021/06/21 02:32:12;;;;;;;5.22;1.77;;;;;;;16.70;89.99;95713.16;5094749;28;20036;-72
2021/06/21 02:34:38;;;;;;;6.05;1.92;;;;;;;16.61;89.55;95699.72;5094578;28;20053;-73
2021/06/21 02:37:04;;;;;;;4.18;2.05;;;;;;;16.55;89.97;95714.06;5094305;28;20476;-73
2021/06/21 02:39:31;;;;;;;4.50;2.03;;;;;;;16.54;90.36;95730.97;5094474;28;20055;-73
2021/06/21 02:41:57;;;;;;;5.07;1.50;;;;;;;16.56;90.56;95734.16;5094191;28;20036;-73
2021/06/21 02:44:23;;;;;;;5.88;1.65;;;;;;;16.57;90.79;95725.94;5094089;28;20032;-73
2021/06/21 02:46:49;;;;;;;4.10;1.90;;;;;;;16.61;90.93;95720.91;5093970;28;20032;-73
2021/06/21 02:49:16;;;;;;;2.75;1.58;;;;;;;16.63;90.72;95721.38;5094180;28;20039;-73
2021/06/21 02:51:49;;;;;;;3.75;1.70;;;;;;;16.67;90.85;95717.13;5093805;28;20039;-73
2021/06/21 02:54:28;;;;;;;3.17;1.60;;;;;;;16.74;90.59;95719.50;5093932;28;20032;-73
2021/06/21 02:57:00;;;;;;;4.20;1.90;;;;;;;16.77;90.75;95722.38;5093989;28;20040;-73
2021/06/21 02:59:29;;;;;;;5.00;1.80;;;;;;;16.79;90.68;95716.81;5092554;28;20043;-73
2021/06/21 03:01:56;;;;;;;5.05;1.42;;;;;;;16.78;90.56;95713.38;5093768;28;20058;-73
2021/06/21 03:04:45;;;;;;;5.75;2.08;;;;;;;16.83;90.14;95715.22;5093693;28;20039;-73
2021/06/21 03:07:13;;;;;;;4.00;1.70;;;;;;;16.80;90.05;95718.41;5093667;28;20039;-73
2021/06/21 03:09:43;;;;;;;4.13;1.70;;;;;;;16.79;90.09;95708.84;5092980;28;20137;-73
2021/06/21 03:12:10;;;;;;;5.45;1.98;;;;;;;16.77;90.27;95718.94;5092573;28;20047;-73
2021/06/21 03:14:43;;;;;;;5.72;1.52;;;;;;;16.78;89.90;95723.97;5093414;28;20040;-73
2021/06/21 03:17:11;;;;;;;4.03;1.70;;;;;;;16.80;89.84;95736.94;5093830;28;20047;-74
2021/06/21 03:19:38;;;;;;;3.15;1.60;;;;;;;16.78;89.94;95742.50;5077381;28;20499;-73
2021/06/21 03:22:05;;;;;;;2.17;1.27;;;;;;;16.77;89.95;95748.84;5093373;28;20032;-73
2021/06/21 03:24:32;;;;;;;3.78;1.40;;;;;;;16.80;90.05;95752.81;5093275;28;20043;-74
2021/06/21 03:26:58;;;;;;;4.95;1.58;;;;;;;16.78;89.88;95752.31;5093728;28;20064;-72
2021/06/21 03:29:24;;;;;;;3.13;1.60;;;;;;;16.79;89.84;95741.41;5093584;28;20484;-73
2021/06/21 03:31:53;;;;;;;3.88;1.38;;;;;;;16.80;89.86;95745.69;5093547;28;20507;-73
2021/06/21 03:34:24;;;;;;;3.92;1.80;;;;;;;16.83;89.54;95745.13;5093002;28;20036;-74
2021/06/21 03:36:51;;;;;;;5.30;1.70;;;;;;;16.81;89.44;95746.47;5093506;28;20088;-73
2021/06/21 03:39:17;;;;;;;5.57;1.70;;;;;;;16.79;89.52;95736.13;5092808;28;20048;-73
2021/06/21 03:41:44;;;;;;;4.57;1.58;;;;;;;16.79;89.88;95744.06;5093266;28;20049;-72
2021/06/21 03:44:10;;;;;;;3.63;1.45;;;;;;;16.77;89.49;95743.53;5093275;28;20032;-73
2021/06/21 03:46:37;;;;;;;3.55;1.50;;;;;;;16.76;89.65;95733.25;5093209;28;20461;-73
2021/06/21 03:49:03;;;;;;;3.63;1.42;;;;;;;16.73;89.51;95739.88;5092980;28;20036;-73
2021/06/21 03:51:29;;;;;;;2.58;1.40;;;;;;;16.75;89.74;95742.25;5092981;28;20032;-73
2021/06/21 03:53:55;;;;;;;4.47;1.20;;;;;;;16.80;90.16;95739.59;5093245;28;20036;-73
2021/06/21 03:56:22;;;;;;;3.72;1.67;;;;;;;16.84;89.98;95735.34;5093890;28;20052;-72
2021/06/21 03:58:50;;;;;;;2.67;1.50;;;;;;;16.89;89.77;95737.97;5093532;28;20471;-73
2021/06/21 04:01:18;;;;;;;2.85;1.25;;;;;;;16.93;89.58;95748.78;5093101;28;20043;-73
2021/06/21 04:03:44;;;;;;;5.90;1.83;;;;;;;16.97;89.42;95755.13;5092577;28;20067;-73
2021/06/21 04:06:10;;;;;;;5.75;1.55;;;;;;;16.96;89.10;95759.63;5093175;28;20040;-72
2021/06/21 04:08:37;;;;;;;5.18;1.85;;;;;;;16.97;89.12;95755.13;5093116;28;20032;-73
2021/06/21 04:11:03;;;;;;;5.70;1.83;;;;;;;16.95;88.89;95757.25;5093268;28;20384;-73
2021/06/21 04:13:29;;;;;;;4.90;1.60;;;;;;;16.84;88.26;95754.69;5093389;28;20039;-72
2021/06/21 04:15:55;;;;;;;4.78;1.80;;;;;;;16.82;88.61;95756.81;5095319;28;20048;-73
2021/06/21 04:18:22;;;;;;;3.85;1.38;;;;;;;16.82;88.62;95758.66;5096622;28;20055;-73
2021/06/21 04:20:48;;;;;;;3.92;1.65;;;;;;;16.83;88.94;95761.03;5096664;28;20047;-73
2021/06/21 04:23:14;;;;;;;4.55;1.58;;;;;;;16.87;88.60;95755.19;5096422;28;20070;-72
2021/06/21 04:25:41;;;;;;;3.80;1.60;;;;;;;16.88;88.77;95748.81;5096505;28;20036;-73
2021/06/21 04:28:08;;;;;;;4.10;1.42;;;;;;;16.89;88.50;95755.72;5096747;28;20040;-73
2021/06/21 04:30:35;;;;;;;2.53;1.27;;;;;;;16.86;88.43;95745.66;5096229;28;20070;-73
2021/06/21 04:33:02;;;;;;;4.00;2.25;;;;;;;16.86;88.38;95743.00;5096541;28;20043;-73
2021/06/21 04:35:29;;;;;;;2.33;1.10;;;;;;;16.90;88.49;95754.63;5096511;28;20028;-73
2021/06/21 04:37:56;;;;;;;3.45;1.40;;;;;;;16.98;88.29;95756.69;5096901;28;20044;-73
2021/06/21 04:40:28;;;;;;;3.03;1.48;;;;;;;17.23;88.42;95768.97;5096588;28;20035;-73
2021/06/21 04:42:54;;;;;;;3.92;1.63;;;;;;;17.39;87.57;95769.66;5096701;28;20039;-73
2021/06/21 04:45:21;;;;;;;4.03;1.40;;;;;;;17.57;87.08;95768.94;5096205;28;20028;-73
2021/06/21 04:47:47;;;;;;;2.95;1.38;;;;;;;17.82;86.76;95762.66;5085555;28;20040;-73
2021/06/21 04:50:17;;;;;;;4.13;1.48;;;;;;;18.00;85.91;95753.19;5096632;28;20039;-73
2021/06/21 04:52:46;;;;;;;4.75;1.58;;;;;;;17.96;84.71;95749.53;5096128;28;20047;-72
2021/06/21 04:55:14;;;;;;;4.53;1.55;;;;;;;18.03;84.66;95755.25;5096017;28;20056;-73
2021/06/21 04:57:40;;;;;;;4.18;1.92;;;;;;;18.02;84.37;95761.66;5096207;28;20428;-73
2021/06/21 05:00:10;;;;;;;4.18;1.83;;;;;;;18.16;83.95;95766.28;5095503;28;20048;-73
2021/06/21 05:02:36;;;;;;;3.67;1.45;;;;;;;18.41;84.25;95765.97;5096347;28;20039;-73
2021/06/21 05:05:03;;;;;;;5.13;1.80;;;;;;;18.59;83.02;95767.09;5096527;28;20407;-73
2021/06/21 05:07:29;;;;;;;5.30;1.70;;;;;;;18.88;82.85;95762.75;5095972;28;20050;-73
2021/06/21 05:09:55;;;;;;;3.90;1.35;;;;;;;19.09;81.72;95761.41;5096163;28;20039;-72
2021/06/21 05:12:22;;;;;;;4.03;1.50;;;;;;;19.08;80.58;95762.47;5095967;28;20044;-72
2021/06/21 05:14:48;;;;;;;4.88;1.80;;;;;;;19.07;80.47;95755.59;5095779;28;20043;-73
2021/06/21 05:17:14;;;;;;;4.78;1.58;;;;;;;19.24;80.00;95760.38;5095522;28;20032;-73
2021/06/21 05:19:40;;;;;;;5.32;1.63;;;;;;;19.41;79.35;95770.47;5081261;28;20035;-73
2021/06/21 05:22:07;;;;;;;4.18;1.70;;;;;;;19.45;78.26;95788.22;5095809;28;20044;-72
2021/06/21 05:24:34;;;;;;;3.53;1.52;;;;;;;19.51;77.90;95785.47;5095210;28;20044;-73
2021/06/21 05:27:01;;;;;;;2.58;1.30;;;;;;;19.51;77.44;95780.94;5095469;28;20036;-72
2021/06/21 05:29:28;;;;;;;2.33;1.20;;;;;;;19.69;77.37;95784.63;5095424;28;20039;-72
2021/06/21 05:31:54;;;;;;;4.03;1.52;;;;;;;19.96;77.01;95794.56;5095702;28;20039;-73
2021/06/21 05:34:21;;;;;;;4.30;1.80;;;;;;;20.17;76.04;95794.97;5094528;28;20055;-72
2021/06/21 05:36:47;;;;;;;4.40;1.50;;;;;;;20.36;75.14;95789.56;5095530;28;20036;-73
2021/06/21 05:39:13;;;;;;;3.63;1.65;;;;;;;20.50;74.10;95800.22;5094830;28;20476;-72
2021/06/21 05:41:39;;;;;;;4.32;1.35;;;;;;;20.63;73.61;95806.66;5095381;28;20036;-73
2021/06/21 05:44:06;;;;;;;2.97;1.48;;;;;;;20.88;72.93;95795.44;5095308;28;20055;-72
2021/06/21 05:46:32;;;;;;;3.78;1.38;;;;;;;21.11;72.08;95790.16;5095206;28;20047;-73
2021/06/21 05:48:58;;;;;;;6.13;1.50;;;;;;;21.19;71.10;95792.13;5095370;28;20487;-73
2021/06/21 05:51:24;;;;;;;4.20;1.38;;;;;;;21.36;70.90;95783.47;5095399;28;20032;-73
2021/06/21 05:53:51;;;;;;;4.13;1.52;;;;;;;21.59;70.21;95776.28;5095030;28;20044;-73
2021/06/21 05:56:17;;;;;;;4.85;2.13;;;;;;;21.62;69.24;95770.31;5094656;28;20061;-73
2021/06/21 05:58:43;;;;;;;2.90;1.45;;;;;;;21.59;68.75;95772.81;5095142;28;20055;-73
2021/06/21 06:01:09;;;;;;;2.00;1.33;;;;;;;21.75;68.62;95773.22;5095107;28;20036;-73
2021/06/21 06:03:35;;;;;;;3.60;1.50;;;;;;;21.86;67.83;95769.97;5095021;28;20396;-73
2021/06/21 06:06:02;;;;;;;3.35;1.42;;;;;;;22.00;67.35;95774.44;5094682;28;20036;-73
2021/06/21 06:08:29;;;;;;;3.95;1.50;;;;;;;22.17;66.82;95771.03;5094982;28;20035;-73
2021/06/21 06:10:55;;;;;;;3.35;1.30;;;;;;;22.26;66.04;95771.91;5094803;28;20032;-72
2021/06/21 06:13:21;;;;;;;3.95;1.27;;;;;;;22.20;65.38;95776.56;5095260;28;20043;-73
2021/06/21 06:15:48;;;;;;;4.07;1.52;;;;;;;21.94;64.73;95776.44;5094749;28;20032;-73
2021/06/21 06:18:15;;;;;;;5.13;1.55;;;;;;;21.77;64.87;95774.47;5094682;28;20468;-72
2021/06/21 06:20:42;;;;;;;3.72;1.45;;;;;;;21.77;64.88;95776.34;5094069;28;20036;-73
2021/06/21 06:23:08;;;;;;;2.45;1.30;;;;;;;21.91;64.89;95776.28;5094264;28;20052;-72
2021/06/21 06:25:37;;;;;;;1.42;0.70;;;;;;;22.07;64.63;95786.25;5094776;28;20035;-72
2021/06/21 06:28:04;;;;;;;3.53;1.17;;;;;;;22.10;63.91;95784.84;5094484;28;20040;-73
2021/06/21 06:30:31;;;;;;;2.83;1.33;;;;;;;22.01;63.84;95792.81;5094350;28;20032;-72
2021/06/21 06:32:57;;;;;;;4.50;1.80;;;;;;;22.13;63.75;95794.13;5094280;28;20050;-73
2021/06/21 06:35:23;;;;;;;2.58;1.10;;;;;;;21.93;63.59;95790.13;5092679;28;20070;-73
2021/06/21 06:37:50;;;;;;;3.80;1.30;;;;;;;21.75;63.77;95795.34;5093627;28;20040;-73
2021/06/21 06:40:17;;;;;;;1.83;1.27;;;;;;;21.93;64.04;95796.22;5093827;28;20369;-72
2021/06/21 06:42:45;;;;;;;1.83;1.10;;;;;;;22.00;63.75;95801.13;5094316;28;20040;-72
2021/06/21 06:45:13;;;;;;;3.33;1.20;;;;;;;22.02;63.75;95799.72;5094027;28;20469;-73
2021/06/21 06:47:39;;;;;;;2.15;1.33;;;;;;;22.00;63.38;95803.81;5093837;28;20031;-73
2021/06/21 06:50:07;;;;;;;2.15;1.30;;;;;;;21.95;63.43;95794.03;5093990;28;20032;-73
2021/06/21 06:52:33;;;;;;;1.80;0.98;;;;;;;21.99;63.44;95802.25;5093814;28;20040;-72
2021/06/21 06:57:37;;;;;;;2.75;1.27;;;;;;;22.35;62.37;95786.06;5093849;28;20404;-72
2021/06/21 07:00:08;;;;;;;2.88;1.10;;;;;;;22.39;62.88;95788.91;5092444;28;20075;-73
2021/06/21 07:02:34;;;;;;;2.05;1.27;;;;;;;22.28;62.61;95785.75;5093606;28;20039;-74
2021/06/21 07:05:03;;;;;;;2.92;1.10;;;;;;;22.10;62.58;95795.53;5081101;28;20036;-72
2021/06/21 07:07:29;;;;;;;2.50;1.00;;;;;;;21.98;62.70;95789.97;5093745;28;20395;-73
2021/06/21 07:09:55;;;;;;;2.50;1.20;;;;;;;22.02;62.85;95788.25;5094018;28;20028;-73
2021/06/21 07:12:22;;;;;;;2.20;1.27;;;;;;;21.89;62.74;95784.59;5093604;28;20044;-73
2021/06/21 07:14:48;;;;;;;3.35;1.23;;;;;;;21.88;63.07;95775.00;5093474;28;20047;-73
2021/06/21 07:17:14;;;;;;;2.25;1.08;;;;;;;22.18;63.06;95773.41;5093543;28;20404;-73
2021/06/21 07:19:41;;;;;;;1.75;1.02;;;;;;;22.40;62.62;95775.22;5084936;28;20032;-73
2021/06/21 07:22:08;;;;;;;3.03;1.20;;;;;;;22.43;61.65;95773.84;5093260;28;20400;-73
2021/06/21 07:24:35;;;;;;;1.15;0.70;;;;;;;22.43;61.39;95776.53;5093446;28;20052;-72
2021/06/21 07:27:02;;;;;;;2.35;1.30;;;;;;;22.41;60.97;95778.72;5093414;28;20460;-72
2021/06/21 07:29:29;;;;;;;2.88;1.08;;;;;;;22.18;60.70;95784.09;5093404;28;20032;-72
2021/06/21 07:31:55;;;;;;;1.98;0.85;;;;;;;22.25;61.11;95786.34;5093086;28;20036;-73
2021/06/21 07:34:21;;;;;;;2.35;1.20;;;;;;;22.09;60.97;95781.41;5093611;28;20032;-73
2021/06/21 07:36:48;;;;;;;3.22;1.35;;;;;;;22.04;61.25;95792.19;5093833;28;20036;-72
2021/06/21 07:39:14;;;;;;;1.55;1.33;;;;;;;22.21;61.50;95783.47;5093485;28;20016;-72
2021/06/21 07:41:41;;;;;;;3.28;1.10;;;;;;;22.28;60.91;95778.50;5093209;28;20051;-72
2021/06/21 07:44:07;;;;;;;3.05;0.90;;;;;;;22.39;60.75;95780.91;5093262;28;20035;-73
2021/06/21 07:46:34;;;;;;;2.80;0.85;;;;;;;22.51;60.53;95775.75;5093147;28;20047;-73
2021/06/21 07:49:01;;;;;;;1.27;1.10;;;;;;;22.49;59.84;95775.28;5093039;28;20028;-73
2021/06/21 07:51:27;;;;;;;2.88;1.02;;;;;;;22.60;59.72;95775.78;5097253;28;20047;-72
2021/06/21 07:53:54;;;;;;;2.95;1.40;;;;;;;22.70;59.44;95770.91;5097450;28;20510;-73
2021/06/21 07:56:21;;;;;;;1.90;1.05;;;;;;;22.78;59.05;95780.03;5097143;28;20504;-72
2021/06/21 07:58:48;;;;;;;1.65;1.15;;;;;;;22.91;59.26;95783.69;5097411;28;20055;-73
2021/06/21 08:01:15;;;;;;;2.60;1.08;;;;;;;23.05;59.14;95770.97;5097163;28;20040;-73
2021/06/21 08:03:42;;;;;;;4.78;1.20;;;;;;;23.02;58.47;95771.59;5097100;28;20032;-73
2021/06/21 08:06:12;;;;;;;2.70;0.90;;;;;;;22.90;58.31;95768.72;5097001;28;20040;-73
2021/06/21 08:08:40;;;;;;;2.42;1.17;;;;;;;22.93;58.22;95770.78;5097480;28;20064;-73
2021/06/21 08:11:11;;;;;;;3.35;1.00;;;;;;;23.08;58.21;95762.34;5097102;28;20051;-73
2021/06/21 08:13:37;;;;;;;2.85;1.15;;;;;;;23.43;57.67;95759.63;5097041;28;20039;-73
2021/06/21 08:16:04;;;;;;;0.95;0.88;;;;;;;23.62;57.02;95761.16;5096438;28;20400;-73
2021/06/21 08:18:30;;;;;;;1.73;1.00;;;;;;;23.58;56.39;95763.72;5097045;28;20040;-73
2021/06/21 08:20:56;;;;;;;2.33;1.25;;;;;;;23.72;56.31;95758.16;5096762;28;20036;-72
2021/06/21 08:23:23;;;;;;;2.47;0.93;;;;;;;23.77;55.85;95760.69;5097108;28;20039;-73
2021/06/21 08:25:49;;;;;;;1.60;1.10;;;;;;;23.95;56.05;95763.31;5096879;28;20036;-73
2021/06/21 08:28:16;;;;;;;1.90;1.30;;;;;;;24.06;55.70;95770.66;5096634;28;20044;-73
2021/06/21 08:30:43;;;;;;;1.95;1.00;;;;;;;24.21;55.21;95772.03;5096660;28;20039;-73
2021/06/21 08:33:10;;;;;;;3.00;1.02;;;;;;;23.98;55.16;95768.81;5096323;28;20043;-73
2021/06/21 08:35:37;;;;;;;2.42;0.90;;;;;;;23.66;55.24;95768.22;5096752;28;20055;-73
2021/06/21 08:38:04;;;;;;;1.40;0.75;;;;;;;23.66;55.52;95778.94;5097017;28;20040;-73
2021/06/21 08:40:33;;;;;;;2.83;1.00;;;;;;;23.86;55.75;95776.72;5096479;28;20051;-72
2021/06/21 08:43:01;;;;;;;2.47;1.25;;;;;;;24.05;55.21;95774.47;5096998;28;20416;-73
2021/06/21 08:45:32;;;;;;;1.95;1.00;;;;;;;24.31;55.17;95776.25;5096551;28;20043;-73
2021/06/21 08:48:00;;;;;;;1.05;0.73;;;;;;;24.38;54.87;95765.81;5096425;28;20039;-73
2021/06/21 08:50:26;;;;;;;1.90;0.77;;;;;;;24.51;54.77;95762.13;5096197;28;20043;-73
2021/06/21 08:52:53;;;;;;;2.42;0.98;;;;;;;24.69;54.86;95767.38;5096206;28;20047;-73
2021/06/21 08:55:19;;;;;;;1.33;0.80;;;;;;;24.85;54.62;95764.94;5096342;28;20469;-73
2021/06/21 08:57:48;;;;;;;1.52;1.00;;;;;;;24.51;53.90;95756.00;5096348;28;20055;-73
2021/06/21 09:00:17;;;;;;;2.03;0.82;;;;;;;24.23;54.14;95752.94;5095723;28;20047;-73
2021/06/21 09:02:46;;;;;;;1.92;0.90;;;;;;;23.94;54.84;95765.22;5096219;28;20032;-73
2021/06/21 09:05:13;;;;;;;2.10;0.85;;;;;;;23.91;55.35;95765.84;5095883;28;20036;-73
2021/06/21 09:07:40;;;;;;;3.00;1.10;;;;;;;23.96;55.73;95770.22;5095821;28;20040;-73
2021/06/21 09:10:20;;;;;;;1.83;1.02;;;;;;;24.07;54.68;95758.84;5095608;28;20051;-73
2021/06/21 09:12:47;;;;;;;2.17;1.25;;;;;;;24.30;55.15;95764.75;5095571;28;20047;-73
2021/06/21 09:15:13;;;;;;;2.17;1.00;;;;;;;24.64;54.87;95756.88;5095988;28;20044;-73
2021/06/21 09:17:39;;;;;;;0.88;0.75;;;;;;;24.86;53.79;95755.75;5096218;28;20039;-72
2021/06/21 09:20:10;;;;;;;1.50;1.00;;;;;;;25.08;53.15;95746.63;5095797;28;20036;-72
2021/06/21 09:22:40;;;;;;;1.42;0.85;;;;;;;25.28;52.08;95732.44;5094964;28;20036;-72
2021/06/21 09:25:16;;;;;;;2.30;0.70;;;;;;;25.24;50.48;95719.97;5095996;28;20032;-72
2021/06/21 09:28:02;;;;;;;0.75;0.60;;;;;;;25.33;50.45;95718.00;5095646;28;20387;-73
2021/06/21 09:30:30;;;;;;;1.52;0.82;;;;;;;25.40;51.91;95734.34;5096174;28;20475;-72
2021/06/21 09:32:58;;;;;;;2.22;1.00;;;;;;;25.64;51.35;95727.47;5095453;28;20036;-73
2021/06/21 09:35:28;;;;;;;4.00;1.20;;;;;;;25.76;49.85;95711.38;5095070;28;20111;-73
2021/06/21 09:37:55;;;;;;;0.80;0.65;;;;;;;25.58;50.47;95723.47;5095079;28;20043;-73
2021/06/21 09:40:30;;;;;;;1.17;0.85;;;;;;;25.65;51.25;95724.47;5095783;28;20043;-73
2021/06/21 09:42:58;;;;;;;1.95;1.02;;;;;;;25.64;50.67;95724.78;5095423;28;20043;-73
2021/06/21 09:45:25;;;;;;;1.27;0.85;;;;;;;25.59;50.96;95731.16;5095436;28;20051;-73
2021/06/21 09:47:51;;;;;;;1.27;0.90;;;;;;;25.50;50.56;95733.16;5094813;28;20072;-73
2021/06/21 09:50:22;;;;;;;1.48;0.80;;;;;;;25.61;48.98;95720.88;5095789;28;20032;-73
2021/06/21 09:53:00;;;;;;;2.35;0.57;;;;;;;25.95;49.24;95720.84;5095465;28;20114;-73
2021/06/21 09:55:32;;;;;;;1.70;0.90;;;;;;;26.24;48.04;95707.19;5080762;28;20059;-73
2021/06/21 09:58:03;;;;;;;1.02;0.70;;;;;;;26.48;48.00;95705.59;5094841;28;20055;-73
2021/06/21 10:00:30;;;;;;;2.13;1.00;;;;;;;26.66;47.71;95703.47;5094890;28;20507;-73
2021/06/21 10:03:09;;;;;;;1.75;0.70;;;;;;;26.73;44.52;95680.25;5095071;28;20061;-73
2021/06/21 10:05:39;;;;;;;1.13;0.57;;;;;;;26.81;47.30;95704.66;5094845;28;20043;-73
2021/06/21 10:08:07;;;;;;;2.05;0.68;;;;;;;26.99;46.45;95694.41;5094591;28;20020;-73
2021/06/21 10:10:35;;;;;;;1.75;0.77;;;;;;;27.05;45.73;95693.06;5094728;28;20086;-73
2021/06/21 10:13:03;;;;;;;0.75;0.52;;;;;;;27.15;45.28;95697.91;5093831;28;20059;-73
2021/06/21 10:15:30;;;;;;;0.40;0.40;;;;;;;27.27;44.87;95729.44;5094713;28;20028;-73
2021/06/21 10:17:56;;;;;;;0.80;0.50;;;;;;;27.23;44.80;95734.72;5094687;28;20040;-72
2021/06/21 10:20:23;;;;;;;1.45;0.82;;;;;;;27.33;44.91;95725.38;5094537;28;20483;-73
2021/06/21 10:22:49;;;;;;;1.90;0.95;;;;;;;27.42;44.15;95720.59;5094532;28;20046;-73
2021/06/21 10:25:15;;;;;;;1.38;0.70;;;;;;;27.33;43.68;95714.59;5094843;28;20046;-73
2021/06/21 10:27:44;;;;;;;1.27;0.60;;;;;;;27.38;43.54;95714.34;5094792;28;20043;-73
2021/06/21 10:30:18;;;;;;;1.73;0.88;;;;;;;27.47;40.96;95698.03;5094456;28;20487;-73
2021/06/21 10:32:47;;;;;;;1.17;0.70;;;;;;;27.72;42.56;95714.84;5094589;28;20396;-73
2021/06/21 10:35:14;;;;;;;1.48;0.50;;;;;;;27.99;42.13;95709.72;5092967;28;20484;-74
2021/06/21 10:38:02;;;;;;;1.27;0.80;;;;;;;28.19;41.51;95702.50;5094482;28;20040;-73
2021/06/21 10:40:29;;;;;;;1.15;0.70;;;;;;;28.39;41.74;95706.03;5094218;28;20055;-73
2021/06/21 10:42:56;;;;;;;1.33;0.60;;;;;;;28.39;41.03;95717.63;5093209;28;20040;-73
2021/06/21 10:45:25;;;;;;;1.10;0.60;;;;;;;28.42;40.78;95718.81;5093566;28;20044;-73
2021/06/21 10:48:15;;;;;;;2.20;0.80;;;;;;;28.52;42.82;95726.41;5093994;28;20063;-73
2021/06/21 10:50:53;;;;;;;0.95;0.70;;;;;;;28.65;39.32;95705.50;5094027;28;20468;-73
2021/06/21 10:53:19;;;;;;;0.88;0.65;;;;;;;28.61;40.45;95716.19;5093980;28;20058;-73
2021/06/21 10:55:48;;;;;;;1.50;0.70;;;;;;;28.71;40.66;95721.03;5093938;28;20048;-73
2021/06/21 10:58:20;;;;;;;0.65;0.52;;;;;;;28.91;40.51;95718.34;5093814;28;20052;-73
2021/06/21 11:00:49;;;;;;;0.98;0.60;;;;;;;29.09;41.07;95724.91;5094210;28;20031;-73
2021/06/21 11:03:24;;;;;;;1.23;0.70;;;;;;;29.18;39.56;95724.72;5093865;28;20044;-73
2021/06/21 11:05:53;;;;;;;1.13;0.45;;;;;;;29.26;40.63;95728.34;5094129;28;20044;-73
2021/06/21 11:08:23;;;;;;;1.80;0.80;;;;;;;29.38;40.07;95727.38;5093356;28;20078;-73
2021/06/21 11:10:54;;;;;;;1.13;0.50;;;;;;;29.51;39.87;95731.50;5093539;28;20036;-73
2021/06/21 11:13:32;;;;;;;1.05;0.65;;;;;;;29.52;37.40;95709.56;5093835;28;20044;-72
2021/06/21 11:16:19;;;;;;;0.82;0.70;;;;;;;29.42;38.79;95729.03;5093203;28;20397;-73
2021/06/21 11:18:49;;;;;;;0.95;0.50;;;;;;;29.55;38.89;95743.16;5093132;28;20047;-73
2021/06/21 11:21:25;;;;;;;1.02;0.70;;;;;;;29.69;38.58;95739.94;5093307;28;20039;-73
2021/06/21 11:23:53;;;;;;;1.60;0.75;;;;;;;29.93;38.89;95741.53;5093911;28;20036;-73
2021/06/21 11:26:20;;;;;;;0.50;0.50;;;;;;;29.83;38.18;95761.06;5093535;28;20044;-73
2021/06/21 11:28:49;;;;;;;0.63;0.47;;;;;;;29.70;38.09;95761.22;5093473;28;20024;-73
2021/06/21 11:31:18;;;;;;;1.25;0.88;;;;;;;29.69;37.55;95751.53;5093396;28;20039;-73
2021/06/21 11:33:55;;;;;;;0.75;0.45;;;;;;;29.85;37.38;95747.97;5092709;28;20039;-73
2021/06/21 11:36:38;;;;;;;1.73;0.60;;;;;;;30.05;35.80;95740.56;5083294;28;20024;-73
2021/06/21 11:39:30;;;;;;;2.00;0.80;;;;;;;30.20;36.49;95749.69;5093194;28;20043;-73
2021/06/21 11:41:57;;;;;;;1.67;0.47;;;;;;;30.09;36.42;95758.44;5092833;28;20035;-74